Oaklawn, Kansas
Current Conditions -  °F | °C
As of 2:59 PM on Monday 22 Dec 2014 (Local Time) from KIAB Reporting Station
Scattered Clouds Scattered Clouds  
Wind Chill: 50°   Ceiling: Unl
Heat Index: 50°   Visibility: 10mi
Dew Point: 37°   Wind: 16mph
Humidity: 62%   Direction: 340°NNW
Pressure: 29.54"   Gusts: 23mph
Location:  37.6055°N, 97.3205°W
Report Text: KIAB 222059Z AUTO 34014G20KT 10SM FEW031 SCT050 10/03 A2954 RMK AO2 WSHFT 46
Loading
Personal Weather Stations






























Interactive Weather Map New forecast layout! Learn more

10-Day Weather Forecast

Advertisements
Track Severe Weather on mobile